Airport View

Enter ICAO identifier to see the current METAR for that AWOS.

KFNL for example

KGDV 312315Z AUTO 35004KT 10SM SCT120 34/05 A3000

31 Jul 2014 23:39

Frequency: 135.075

Phone: 406-687-3346

Other Area AWOS: K20U - KSDY - KBHK - KPO1

TAF KGDV 311729Z 3118/0118 19010KT P6SM VCTS SCT050CB BKN100 FM010200 04008KT P6SM SCT250 FM010600 VRB05KT P6SM SKC FM011200 03008KT P6SM FEW300 AMD LTD TO CLD VIS AND WIND